Time;durP1;ratioP1;P1;durP2;ratioP2;P2;SDS_P1;SDS_P2;PMS_P1;PMS_P2;Temp;Humidity;BMP_temperature;BMP_pressure;BME280_temperature;BME280_humidity;BME280_pressure;Samples;Min_cycle;Max_cycle;Signal;HPM_P1;HPM_P2
2023/09/29 00:00:48;;;;;;;8.33;6.73;;;14.20;99.90;;;;;;5074047;28;20619;-78
2023/09/29 00:03:15;;;;;;;7.53;6.63;;;14.10;99.90;;;;;;5077261;28;20199;-76
2023/09/29 00:05:44;;;;;;;7.37;6.13;;;14.10;99.90;;;;;;5082395;28;20210;-76
2023/09/29 00:08:15;;;;;;;6.57;5.97;;;14.10;99.90;;;;;;5056830;28;20182;-76
2023/09/29 00:10:42;;;;;;;7.13;6.43;;;14.10;99.90;;;;;;5074935;28;20634;-77
2023/09/29 00:13:07;;;;;;;7.20;6.57;;;14.10;99.90;;;;;;5053514;28;20172;-76
2023/09/29 00:15:33;;;;;;;7.50;6.70;;;14.00;99.90;;;;;;5072095;28;20606;-79
2023/09/29 00:18:00;;;;;;;6.77;6.13;;;14.00;99.90;;;;;;5074710;28;20175;-76
2023/09/29 00:20:26;;;;;;;6.87;6.17;;;14.00;99.90;;;;;;5076423;28;20228;-76
2023/09/29 00:22:56;;;;;;;7.27;6.60;;;13.90;99.90;;;;;;5093370;28;20167;-77
2023/09/29 00:25:23;;;;;;;11.10;6.77;;;14.00;99.90;;;;;;5081223;28;20229;-79
2023/09/29 00:27:50;;;;;;;6.67;6.07;;;13.90;99.90;;;;;;5078756;28;20526;-77
2023/09/29 00:30:16;;;;;;;7.00;6.40;;;13.90;99.90;;;;;;5090255;28;20174;-75
2023/09/29 00:32:45;;;;;;;7.13;6.47;;;13.90;99.90;;;;;;5080865;28;20654;-77
2023/09/29 00:35:11;;;;;;;6.90;6.30;;;13.90;99.90;;;;;;5077875;28;20202;-77
2023/09/29 00:37:37;;;;;;;7.63;6.40;;;13.90;99.90;;;;;;5078543;28;20225;-78
2023/09/29 00:40:12;;;;;;;8.87;6.63;;;13.80;99.90;;;;;;5078247;28;20183;-76
2023/09/29 00:42:39;;;;;;;7.43;6.73;;;13.80;99.90;;;;;;5078455;28;20506;-76
2023/09/29 00:45:05;;;;;;;10.57;6.60;;;13.80;99.90;;;;;;5077524;28;20167;-76
2023/09/29 00:47:32;;;;;;;7.27;6.30;;;13.70;99.90;;;;;;5083456;28;20167;-77
2023/09/29 00:49:58;;;;;;;8.43;6.63;;;13.80;99.90;;;;;;5095126;28;20187;-76
2023/09/29 00:52:27;;;;;;;9.60;7.00;;;13.70;99.90;;;;;;5079777;28;20309;-75
2023/09/29 00:54:53;;;;;;;7.53;6.87;;;13.70;99.90;;;;;;5078104;28;20203;-77
2023/09/29 00:57:20;;;;;;;9.13;6.67;;;13.70;99.90;;;;;;5077435;28;20167;-76
2023/09/29 00:59:46;;;;;;;8.80;6.97;;;13.70;99.90;;;;;;5077627;28;20175;-76
2023/09/29 01:02:14;;;;;;;7.13;6.43;;;13.70;99.90;;;;;;5078101;28;20218;-77
2023/09/29 01:04:40;;;;;;;7.40;6.70;;;13.60;99.90;;;;;;5077696;28;20171;-75
2023/09/29 01:07:07;;;;;;;8.70;7.07;;;13.70;99.90;;;;;;5077932;28;20532;-76
2023/09/29 01:09:33;;;;;;;7.60;6.73;;;13.70;99.90;;;;;;5084121;28;20178;-76
2023/09/29 01:12:04;;;;;;;7.30;6.60;;;13.70;99.90;;;;;;5089560;28;20171;-76
2023/09/29 01:14:30;;;;;;;8.20;6.80;;;13.80;99.90;;;;;;5086875;28;20195;-77
2023/09/29 01:16:56;;;;;;;9.83;6.20;;;13.70;99.90;;;;;;5091239;28;20174;-76
2023/09/29 01:19:22;;;;;;;7.10;6.50;;;13.70;99.90;;;;;;5097404;28;20163;-75
2023/09/29 01:21:48;;;;;;;7.80;6.80;;;13.70;99.90;;;;;;5083107;28;20655;-77
2023/09/29 01:24:14;;;;;;;7.77;7.13;;;13.70;99.90;;;;;;5081135;28;20190;-77
2023/09/29 01:26:46;;;;;;;7.40;6.70;;;13.70;99.90;;;;;;5097578;28;20246;-78
2023/09/29 01:29:11;;;;;;;8.90;6.70;;;13.70;99.90;;;;;;5078194;28;20242;-76
2023/09/29 01:31:39;;;;;;;7.47;6.60;;;13.60;99.90;;;;;;5076882;28;20187;-78
2023/09/29 01:34:05;;;;;;;7.37;6.67;;;13.60;99.90;;;;;;5081323;28;20209;-76
2023/09/29 01:36:32;;;;;;;6.83;6.23;;;13.70;99.90;;;;;;5082155;28;20166;-78
2023/09/29 01:38:57;;;;;;;8.97;7.10;;;13.70;99.90;;;;;;5077497;28;20182;-75
2023/09/29 01:41:24;;;;;;;6.63;6.03;;;13.70;99.90;;;;;;5077886;28;20258;-80
2023/09/29 01:43:50;;;;;;;7.50;6.70;;;13.60;99.90;;;;;;5077114;28;20629;-77
2023/09/29 01:46:16;;;;;;;8.37;6.90;;;13.60;99.90;;;;;;5059200;28;20202;-79
2023/09/29 01:48:42;;;;;;;7.77;6.90;;;13.60;99.90;;;;;;5076465;28;20221;-76
2023/09/29 01:51:08;;;;;;;6.87;6.27;;;13.60;99.90;;;;;;5076816;28;20216;-78
2023/09/29 01:53:34;;;;;;;7.27;6.47;;;13.60;99.90;;;;;;5078295;28;20175;-78
2023/09/29 01:56:01;;;;;;;8.53;6.97;;;13.60;99.90;;;;;;5076269;28;20224;-77
2023/09/29 01:58:27;;;;;;;6.97;6.27;;;13.60;99.90;;;;;;5076774;28;20175;-78
2023/09/29 02:00:54;;;;;;;7.00;6.40;;;13.60;99.90;;;;;;5075973;28;20179;-76
2023/09/29 02:03:21;;;;;;;7.00;6.40;;;13.60;99.90;;;;;;5070340;28;20196;-77
2023/09/29 02:05:47;;;;;;;11.43;6.93;;;13.50;99.90;;;;;;5078679;28;20244;-78
2023/09/29 02:08:13;;;;;;;8.17;6.70;;;13.50;99.90;;;;;;5068250;28;20188;-77
2023/09/29 02:10:39;;;;;;;8.10;7.30;;;13.50;99.90;;;;;;5072211;28;20229;-77
2023/09/29 02:13:04;;;;;;;7.17;6.40;;;13.50;99.90;;;;;;5076823;28;20167;-78
2023/09/29 02:15:34;;;;;;;10.13;7.33;;;13.40;99.90;;;;;;5076197;28;20294;-77
2023/09/29 02:18:07;;;;;;;11.33;6.63;;;13.40;99.90;;;;;;5077028;28;20171;-77
2023/09/29 02:20:34;;;;;;;7.67;6.97;;;13.40;99.90;;;;;;5075756;28;20532;-78
2023/09/29 02:23:01;;;;;;;7.70;6.90;;;13.40;99.90;;;;;;5076366;28;20707;-77
2023/09/29 02:25:27;;;;;;;7.93;7.23;;;13.40;99.90;;;;;;5076778;28;20198;-76
2023/09/29 02:27:54;;;;;;;8.73;7.37;;;13.30;99.90;;;;;;5076515;28;20175;-78
2023/09/29 02:30:20;;;;;;;8.77;7.80;;;13.30;99.90;;;;;;5075118;28;20587;-78
2023/09/29 02:32:46;;;;;;;8.10;7.10;;;13.40;99.90;;;;;;5075417;28;20272;-77
2023/09/29 02:35:13;;;;;;;8.40;7.40;;;13.40;99.90;;;;;;5057630;28;20264;-79
2023/09/29 02:37:38;;;;;;;9.17;7.30;;;13.50;99.90;;;;;;5075953;28;20691;-77
2023/09/29 02:40:13;;;;;;;9.90;8.00;;;13.50;99.90;;;;;;5075287;28;20211;-77
2023/09/29 02:42:39;;;;;;;8.17;7.37;;;13.60;99.90;;;;;;5075832;28;20160;-77
2023/09/29 02:45:06;;;;;;;9.33;7.97;;;13.60;99.90;;;;;;5075537;28;20645;-80
2023/09/29 02:47:32;;;;;;;9.53;8.23;;;13.60;99.90;;;;;;5075758;28;20181;-78
2023/09/29 02:49:58;;;;;;;7.73;7.03;;;13.60;99.90;;;;;;5075269;28;20168;-76
2023/09/29 02:52:28;;;;;;;8.13;7.33;;;13.50;99.90;;;;;;5058394;28;20254;-76
2023/09/29 02:54:54;;;;;;;16.67;8.13;;;13.50;99.90;;;;;;5076064;28;20210;-78
2023/09/29 02:57:21;;;;;;;8.20;7.40;;;13.50;99.90;;;;;;5078205;28;20700;-76
2023/09/29 02:59:47;;;;;;;8.13;7.33;;;13.50;99.90;;;;;;5077177;28;20167;-77
2023/09/29 03:02:13;;;;;;;9.17;7.37;;;13.60;99.90;;;;;;5086812;28;20282;-76
2023/09/29 03:04:39;;;;;;;7.87;7.17;;;13.60;99.90;;;;;;5085765;28;20183;-77
2023/09/29 03:07:06;;;;;;;8.83;7.93;;;13.60;99.90;;;;;;5076949;28;20171;-76
2023/09/29 03:09:33;;;;;;;10.00;7.27;;;13.60;99.90;;;;;;5058261;28;20630;-77
2023/09/29 03:12:03;;;;;;;9.30;7.57;;;13.60;99.90;;;;;;5089717;28;20179;-76
2023/09/29 03:14:29;;;;;;;12.13;7.83;;;13.60;99.90;;;;;;5077589;28;20201;-75
2023/09/29 03:16:54;;;;;;;10.27;7.60;;;13.60;99.90;;;;;;5096578;28;20179;-77
2023/09/29 03:19:21;;;;;;;8.43;7.63;;;13.60;99.90;;;;;;5085851;28;20205;-74
2023/09/29 03:21:48;;;;;;;10.97;7.93;;;13.60;99.90;;;;;;5075132;28;20183;-77
2023/09/29 03:24:14;;;;;;;8.77;7.57;;;13.60;99.90;;;;;;5074659;28;20177;-77
2023/09/29 03:26:40;;;;;;;10.40;7.77;;;13.60;99.90;;;;;;5073817;28;20623;-79
2023/09/29 03:29:06;;;;;;;9.53;7.87;;;13.60;99.90;;;;;;5074977;28;20172;-76
2023/09/29 03:31:31;;;;;;;11.67;7.87;;;13.60;99.90;;;;;;5075000;28;20182;-77
2023/09/29 03:33:57;;;;;;;8.43;7.63;;;13.50;99.90;;;;;;5074590;28;20229;-76
2023/09/29 03:36:23;;;;;;;8.63;7.60;;;13.50;99.90;;;;;;5074677;28;20182;-78
2023/09/29 03:38:49;;;;;;;10.23;7.90;;;13.50;99.90;;;;;;5056482;28;20178;-78
2023/09/29 03:41:15;;;;;;;12.20;7.90;;;13.50;99.90;;;;;;5075064;28;20171;-76
2023/09/29 03:43:41;;;;;;;10.37;7.80;;;13.50;99.90;;;;;;5076183;28;20592;-77
2023/09/29 03:46:20;;;;;;;9.07;8.13;;;13.50;99.90;;;;;;5088176;28;20179;-79
2023/09/29 03:48:47;;;;;;;8.60;7.70;;;13.50;99.90;;;;;;5083291;28;20156;-79
2023/09/29 03:51:33;;;;;;;8.57;7.37;;;13.50;99.90;;;;;;5074248;28;20169;-79
2023/09/29 03:54:00;;;;;;;9.30;7.60;;;13.50;99.90;;;;;;5074602;28;20179;-78
2023/09/29 03:56:25;;;;;;;12.83;8.50;;;13.50;99.90;;;;;;5073492;28;20179;-77
2023/09/29 03:58:55;;;;;;;9.10;7.87;;;13.50;99.90;;;;;;5074201;28;20509;-76
2023/09/29 04:01:22;;;;;;;10.50;7.67;;;13.50;99.90;;;;;;5056714;28;20227;-79
2023/09/29 04:03:48;;;;;;;8.77;7.87;;;13.50;99.90;;;;;;5075006;28;20270;-77
2023/09/29 04:06:14;;;;;;;10.70;7.67;;;13.50;99.90;;;;;;5056792;28;20548;-78
2023/09/29 04:08:40;;;;;;;8.47;7.57;;;13.40;99.90;;;;;;5056670;28;20220;-76
2023/09/29 04:11:07;;;;;;;8.70;7.70;;;13.40;99.90;;;;;;5074583;28;20174;-75
2023/09/29 04:13:33;;;;;;;11.30;8.27;;;13.40;99.90;;;;;;5074880;28;20171;-77
2023/09/29 04:16:06;;;;;;;11.47;8.17;;;13.40;99.90;;;;;;5074440;28;20268;-77
2023/09/29 04:18:32;;;;;;;10.40;7.83;;;13.40;99.90;;;;;;5073535;28;20167;-77
2023/09/29 04:21:00;;;;;;;9.07;8.17;;;13.40;99.90;;;;;;5074499;28;20175;-77
2023/09/29 04:23:26;;;;;;;9.47;8.47;;;13.30;99.90;;;;;;5074754;28;20164;-76
2023/09/29 04:25:51;;;;;;;9.67;8.27;;;13.30;99.90;;;;;;5055490;28;20183;-77
2023/09/29 04:28:17;;;;;;;8.43;7.30;;;13.30;99.90;;;;;;5086127;28;20171;-74
2023/09/29 04:30:43;;;;;;;10.27;8.00;;;13.30;99.90;;;;;;5075367;28;20775;-77
2023/09/29 04:33:09;;;;;;;9.30;8.00;;;13.30;99.90;;;;;;5075343;28;20214;-79
2023/09/29 04:35:34;;;;;;;8.87;7.97;;;13.10;99.90;;;;;;5074655;28;20280;-77
2023/09/29 04:38:01;;;;;;;10.17;8.17;;;13.00;99.90;;;;;;5080893;28;20175;-76
2023/09/29 04:40:28;;;;;;;8.97;8.07;;;12.90;99.90;;;;;;5085769;28;20167;-75
2023/09/29 04:42:54;;;;;;;11.90;8.77;;;12.90;99.90;;;;;;5074696;28;20205;-76
2023/09/29 04:45:20;;;;;;;9.67;8.37;;;12.90;99.90;;;;;;5074584;28;20171;-76
2023/09/29 04:47:46;;;;;;;9.87;8.37;;;12.80;99.90;;;;;;5074227;28;20174;-75
2023/09/29 04:50:14;;;;;;;9.27;8.17;;;12.80;99.90;;;;;;5074189;28;20178;-76
2023/09/29 04:52:39;;;;;;;13.83;8.83;;;12.70;99.90;;;;;;5075197;28;20170;-78
2023/09/29 04:55:05;;;;;;;8.67;7.87;;;12.60;99.90;;;;;;5074622;28;20297;-78
2023/09/29 04:57:31;;;;;;;11.27;8.77;;;12.50;99.90;;;;;;5075571;28;20577;-77
2023/09/29 04:59:57;;;;;;;9.43;8.40;;;12.50;99.90;;;;;;5083907;28;20177;-78
2023/09/29 05:02:24;;;;;;;12.33;8.70;;;12.50;99.90;;;;;;5094230;28;20234;-76
2023/09/29 05:04:50;;;;;;;10.70;8.80;;;12.40;99.90;;;;;;5081122;28;20258;-76
2023/09/29 05:07:16;;;;;;;11.53;9.27;;;12.40;99.90;;;;;;5077980;28;20298;-77
2023/09/29 05:09:42;;;;;;;15.57;9.13;;;12.40;99.90;;;;;;5077668;28;20262;-75
2023/09/29 05:12:07;;;;;;;11.00;8.87;;;12.40;99.90;;;;;;5077574;28;20677;-77
2023/09/29 05:14:33;;;;;;;11.47;8.90;;;12.30;99.90;;;;;;5078293;28;20197;-78
2023/09/29 05:16:59;;;;;;;10.60;9.37;;;12.30;99.90;;;;;;5084915;28;20171;-76
2023/09/29 05:19:25;;;;;;;11.47;8.50;;;12.30;99.90;;;;;;5094256;28;20169;-78
2023/09/29 05:21:51;;;;;;;10.13;9.13;;;12.30;99.90;;;;;;5078307;28;20784;-78
2023/09/29 05:24:17;;;;;;;14.63;9.70;;;12.30;99.90;;;;;;5078294;28;20175;-76
2023/09/29 05:26:42;;;;;;;11.23;8.47;;;12.40;99.90;;;;;;5072583;28;20194;-77
2023/09/29 05:29:08;;;;;;;11.07;9.03;;;12.30;99.90;;;;;;5093075;28;20168;-76
2023/09/29 05:31:34;;;;;;;12.40;9.37;;;12.30;99.90;;;;;;5089332;28;20190;-77
2023/09/29 05:34:00;;;;;;;10.73;8.97;;;12.40;99.90;;;;;;5076795;28;20217;-78
2023/09/29 05:36:27;;;;;;;15.23;9.27;;;12.40;99.90;;;;;;5076872;28;20172;-77
2023/09/29 05:38:53;;;;;;;11.27;9.33;;;12.40;99.90;;;;;;5058187;28;20513;-75
2023/09/29 05:41:18;;;;;;;10.30;8.90;;;12.40;99.90;;;;;;5062509;28;20174;-77
2023/09/29 05:43:44;;;;;;;11.77;8.80;;;12.40;99.90;;;;;;5057168;28;20261;-76
2023/09/29 05:46:10;;;;;;;10.47;9.07;;;12.40;99.90;;;;;;5057028;28;20195;-77
2023/09/29 05:48:38;;;;;;;9.43;8.47;;;12.40;99.90;;;;;;5057382;28;20191;-76
2023/09/29 05:51:03;;;;;;;12.10;9.20;;;12.40;99.90;;;;;;5059735;28;20168;-76
2023/09/29 05:53:29;;;;;;;10.30;8.97;;;12.40;99.90;;;;;;5060908;28;20512;-77
2023/09/29 05:55:55;;;;;;;9.23;8.33;;;12.50;99.90;;;;;;5061323;28;20720;-77
2023/09/29 05:58:21;;;;;;;11.13;9.20;;;12.50;99.90;;;;;;5065972;28;20623;-80
2023/09/29 06:00:47;;;;;;;10.47;9.37;;;12.50;99.90;;;;;;5046913;28;20191;-78
2023/09/29 06:03:13;;;;;;;10.40;8.73;;;12.60;99.90;;;;;;5064626;28;20172;-77
2023/09/29 06:05:39;;;;;;;12.47;8.53;;;12.70;99.90;;;;;;5068249;28;20168;-80
2023/09/29 06:08:06;;;;;;;9.07;8.13;;;12.70;99.90;;;;;;5064843;28;20618;-76
2023/09/29 06:10:32;;;;;;;14.60;8.97;;;12.80;99.90;;;;;;5040696;28;20528;-76
2023/09/29 06:12:59;;;;;;;11.97;8.60;;;12.80;99.90;;;;;;5059443;28;20186;-76
2023/09/29 06:15:25;;;;;;;12.23;9.20;;;12.90;99.90;;;;;;5062093;28;20226;-77
2023/09/29 06:17:51;;;;;;;12.67;9.03;;;13.00;99.90;;;;;;5050895;28;20202;-78
2023/09/29 06:20:18;;;;;;;10.57;8.60;;;13.10;99.90;;;;;;5057558;28;20683;-75
2023/09/29 06:22:44;;;;;;;11.00;8.80;;;13.20;99.90;;;;;;5039435;28;20188;-75
2023/09/29 06:25:10;;;;;;;13.33;9.20;;;13.30;99.90;;;;;;5056905;28;20604;-74
2023/09/29 06:27:36;;;;;;;13.17;8.57;;;13.40;99.90;;;;;;5056433;28;20184;-76
2023/09/29 06:30:03;;;;;;;12.20;8.77;;;13.50;99.90;;;;;;5055998;28;20646;-76
2023/09/29 06:32:28;;;;;;;11.07;8.60;;;13.60;99.90;;;;;;5056694;28;20164;-75
2023/09/29 06:34:54;;;;;;;12.73;8.53;;;13.60;99.90;;;;;;5056352;28;20578;-77
2023/09/29 06:37:20;;;;;;;9.47;8.10;;;13.70;99.90;;;;;;5056643;28;20623;-75
2023/09/29 06:39:46;;;;;;;10.13;7.97;;;13.90;99.90;;;;;;5037944;28;20187;-75
2023/09/29 06:42:12;;;;;;;9.03;8.13;;;13.90;99.90;;;;;;5056747;28;20194;-76
2023/09/29 06:44:37;;;;;;;12.87;8.90;;;13.90;99.90;;;;;;5057181;28;20186;-76
2023/09/29 06:47:03;;;;;;;8.70;7.90;;;13.90;99.90;;;;;;5056270;28;20187;-77
2023/09/29 06:49:29;;;;;;;10.57;9.53;;;13.90;99.90;;;;;;5056666;28;20179;-77
2023/09/29 06:51:55;;;;;;;13.00;8.87;;;13.90;99.90;;;;;;5062117;28;20236;-77
2023/09/29 06:54:20;;;;;;;12.00;8.73;;;14.00;99.90;;;;;;5072856;28;20211;-77
2023/09/29 06:56:46;;;;;;;14.33;8.50;;;14.00;99.90;;;;;;5061877;28;20627;-75
2023/09/29 06:59:12;;;;;;;10.03;8.60;;;14.20;99.90;;;;;;5057312;28;20187;-76
2023/09/29 07:01:38;;;;;;;10.67;8.70;;;14.20;99.90;;;;;;5056564;28;20235;-78
2023/09/29 07:04:04;;;;;;;12.17;8.17;;;14.30;99.90;;;;;;5041797;28;20179;-76
2023/09/29 07:06:30;;;;;;;10.33;8.50;;;14.40;99.90;;;;;;5056276;28;20310;-77
2023/09/29 07:08:56;;;;;;;12.93;8.53;;;14.50;99.90;;;;;;5056874;28;20177;-77
2023/09/29 07:11:22;;;;;;;13.03;9.23;;;14.60;99.90;;;;;;5070232;28;20238;-75
2023/09/29 07:13:47;;;;;;;12.37;8.53;;;14.70;99.90;;;;;;5059946;28;20195;-77
2023/09/29 07:16:13;;;;;;;10.30;8.07;;;14.80;99.90;;;;;;5058464;28;20243;-79
2023/09/29 07:18:41;;;;;;;10.67;8.70;;;14.90;99.90;;;;;;5072983;28;20259;-78
2023/09/29 07:21:07;;;;;;;8.97;7.50;;;15.00;99.90;;;;;;5059130;28;20175;-76
2023/09/29 07:23:34;;;;;;;9.40;8.17;;;15.10;99.90;;;;;;5055852;28;20299;-75
2023/09/29 07:26:00;;;;;;;10.10;8.20;;;15.10;99.90;;;;;;5055832;28;20721;-76
2023/09/29 07:28:26;;;;;;;11.73;7.97;;;15.20;99.90;;;;;;5055148;28;20200;-76
2023/09/29 07:30:52;;;;;;;8.20;7.40;;;15.30;99.90;;;;;;5055821;28;20204;-76
2023/09/29 07:33:18;;;;;;;12.53;7.63;;;15.30;99.90;;;;;;5056003;28;20171;-76
2023/09/29 07:35:44;;;;;;;8.50;7.57;;;15.50;99.90;;;;;;5055239;28;20203;-75
2023/09/29 07:38:10;;;;;;;9.60;7.67;;;15.60;99.90;;;;;;5055598;28;20526;-75
2023/09/29 07:40:36;;;;;;;12.00;7.20;;;15.60;99.90;;;;;;5055781;28;20635;-78
2023/09/29 07:43:04;;;;;;;8.20;7.47;;;15.70;99.90;;;;;;5067096;28;20194;-77
2023/09/29 07:45:29;;;;;;;8.50;7.70;;;15.80;99.90;;;;;;5063799;28;20540;-77
2023/09/29 07:47:55;;;;;;;10.50;7.10;;;15.90;99.90;;;;;;5069374;28;20288;-77
2023/09/29 07:50:21;;;;;;;9.07;7.40;;;16.00;99.90;;;;;;5072815;28;20175;-78
2023/09/29 07:52:47;;;;;;;12.07;8.13;;;16.10;99.90;;;;;;5061731;28;20173;-78
2023/09/29 07:55:12;;;;;;;9.43;7.70;;;16.20;99.90;;;;;;5064847;28;20560;-77
2023/09/29 07:57:38;;;;;;;8.00;7.30;;;16.20;99.90;;;;;;5055782;28;20180;-77
2023/09/29 08:00:05;;;;;;;8.23;6.73;;;16.30;99.90;;;;;;5055089;28;20176;-77
2023/09/29 08:02:31;;;;;;;8.03;6.93;;;16.40;99.90;;;;;;5055146;28;20231;-76
2023/09/29 08:04:57;;;;;;;7.93;6.97;;;16.50;99.90;;;;;;5054951;28;20219;-76
2023/09/29 08:07:23;;;;;;;9.53;7.27;;;16.60;99.90;;;;;;5055169;28;20180;-77
2023/09/29 08:09:50;;;;;;;7.47;6.77;;;16.70;99.90;;;;;;5054130;28;20172;-76
2023/09/29 08:12:19;;;;;;;8.90;6.83;;;16.70;99.90;;;;;;5056147;28;20171;-76
2023/09/29 08:14:45;;;;;;;9.50;6.90;;;16.80;99.90;;;;;;5057944;28;20211;-77
2023/09/29 08:17:11;;;;;;;9.23;6.37;;;16.90;99.90;;;;;;5055009;28;20604;-77
2023/09/29 08:19:37;;;;;;;8.63;7.13;;;17.00;99.90;;;;;;5036981;28;20994;-77
2023/09/29 08:22:03;;;;;;;7.50;6.67;;;17.10;99.90;;;;;;5055518;28;20172;-77
2023/09/29 08:24:32;;;;;;;6.83;6.13;;;17.10;99.90;;;;;;5054953;28;20168;-76
2023/09/29 08:27:00;;;;;;;6.73;6.23;;;17.20;99.90;;;;;;5040954;28;20566;-76
2023/09/29 08:29:26;;;;;;;7.30;6.60;;;17.20;99.90;;;;;;5058753;28;20258;-76
2023/09/29 08:31:53;;;;;;;10.57;6.77;;;17.30;99.90;;;;;;5054486;28;20182;-76
2023/09/29 08:34:19;;;;;;;7.73;6.20;;;17.40;99.90;;;;;;5054619;28;20234;-78
2023/09/29 08:36:45;;;;;;;8.03;7.23;;;17.40;99.90;;;;;;5054849;28;20655;-75
2023/09/29 08:39:11;;;;;;;7.10;6.40;;;17.50;99.90;;;;;;5054320;28;20178;-78
2023/09/29 08:41:48;;;;;;;9.60;6.23;;;17.50;99.90;;;;;;5065158;28;20172;-77
2023/09/29 08:44:19;;;;;;;7.50;6.80;;;17.60;99.90;;;;;;5078061;28;20164;-77
2023/09/29 08:46:49;;;;;;;7.33;6.63;;;17.70;99.90;;;;;;5071446;28;20164;-77
2023/09/29 08:49:18;;;;;;;6.70;6.00;;;17.70;99.90;;;;;;5063677;28;20175;-77
2023/09/29 08:51:46;;;;;;;12.60;6.80;;;17.80;99.90;;;;;;5061620;28;20299;-78
2023/09/29 08:54:14;;;;;;;7.47;6.27;;;18.00;99.90;;;;;;5068247;28;20259;-77
2023/09/29 08:56:40;;;;;;;6.63;5.80;;;18.10;99.90;;;;;;5061028;28;20679;-77
2023/09/29 08:59:06;;;;;;;6.60;5.90;;;18.10;99.90;;;;;;5058306;28;20260;-78
2023/09/29 09:01:32;;;;;;;8.70;6.13;;;18.20;99.90;;;;;;5058240;28;20247;-77
2023/09/29 09:03:59;;;;;;;6.67;6.07;;;18.30;99.90;;;;;;5057993;28;20175;-77
2023/09/29 09:06:25;;;;;;;6.47;5.87;;;18.40;99.90;;;;;;5057952;28;20172;-76
2023/09/29 09:08:53;;;;;;;6.13;5.53;;;18.50;99.90;;;;;;5058165;28;20175;-76
2023/09/29 09:11:19;;;;;;;7.93;5.80;;;18.60;99.90;;;;;;5058178;28;20254;-76
2023/09/29 09:13:59;;;;;;;6.57;5.97;;;18.60;99.90;;;;;;5043400;28;20184;-77
2023/09/29 09:16:29;;;;;;;7.10;5.90;;;18.70;99.90;;;;;;5063309;28;20180;-76
2023/09/29 09:18:55;;;;;;;7.87;5.63;;;18.70;99.90;;;;;;5061196;28;20635;-75
2023/09/29 09:21:32;;;;;;;8.97;6.50;;;18.70;99.90;;;;;;5071080;28;20182;-76
2023/09/29 09:23:58;;;;;;;8.00;6.90;;;18.80;99.90;;;;;;5044321;28;20301;-76
2023/09/29 09:26:28;;;;;;;9.23;7.40;;;18.90;99.90;;;;;;5058436;28;20168;-80
2023/09/29 09:28:54;;;;;;;8.17;6.77;;;18.90;99.90;;;;;;5040270;28;20176;-78
2023/09/29 09:31:20;;;;;;;12.20;6.80;;;19.00;99.90;;;;;;5059966;28;20249;-75
2023/09/29 09:33:53;;;;;;;9.57;6.77;;;19.10;99.90;;;;;;5075696;28;20168;-78
2023/09/29 09:36:19;;;;;;;10.13;6.67;;;19.10;99.90;;;;;;5070897;28;20164;-76
2023/09/29 09:38:47;;;;;;;9.77;6.13;;;19.10;99.90;;;;;;5058363;28;20976;-78
2023/09/29 09:41:16;;;;;;;6.67;5.93;;;19.10;99.90;;;;;;5058188;28;20204;-77
2023/09/29 09:43:43;;;;;;;7.37;6.10;;;19.10;99.90;;;;;;5064144;28;20168;-78
2023/09/29 09:46:12;;;;;;;5.57;5.13;;;19.10;99.90;;;;;;5039773;28;20211;-77
2023/09/29 09:48:53;;;;;;;7.03;5.93;;;19.20;99.90;;;;;;5058479;28;20168;-75
2023/09/29 09:51:36;;;;;;;7.10;5.60;;;19.30;99.90;;;;;;5056341;28;20179;-76
2023/09/29 09:54:03;;;;;;;7.17;4.87;;;19.40;99.90;;;;;;5056135;28;20195;-76
2023/09/29 09:56:55;;;;;;;6.57;4.83;;;19.40;99.90;;;;;;5056443;28;20168;-76
2023/09/29 09:59:22;;;;;;;5.50;4.97;;;19.40;99.90;;;;;;5056610;28;20230;-76
2023/09/29 10:01:50;;;;;;;6.93;4.53;;;19.50;99.90;;;;;;5056497;28;20228;-75
2023/09/29 10:04:17;;;;;;;10.60;4.80;;;19.50;99.90;;;;;;5062004;28;20550;-77
2023/09/29 10:06:45;;;;;;;8.27;4.80;;;19.60;99.90;;;;;;5061617;28;20290;-75
2023/09/29 10:09:11;;;;;;;5.43;4.63;;;19.50;99.90;;;;;;5057154;28;20172;-76
2023/09/29 10:11:44;;;;;;;5.20;4.67;;;19.50;99.90;;;;;;5068229;28;20635;-76
2023/09/29 10:14:10;;;;;;;5.30;4.40;;;19.60;99.90;;;;;;5061614;28;20195;-76
2023/09/29 10:16:38;;;;;;;6.77;5.23;;;19.60;99.90;;;;;;5041108;28;20188;-76
2023/09/29 10:19:12;;;;;;;5.37;4.57;;;19.60;99.90;;;;;;5059498;28;20642;-77
2023/09/29 10:21:45;;;;;;;5.63;5.07;;;19.70;99.90;;;;;;5059055;28;20163;-75
2023/09/29 10:24:17;;;;;;;7.83;4.93;;;19.70;99.90;;;;;;5055617;28;20631;-76
2023/09/29 10:26:45;;;;;;;7.80;5.80;;;19.80;99.90;;;;;;5057118;28;20500;-77
2023/09/29 10:29:24;;;;;;;5.27;4.73;;;19.80;99.90;;;;;;5056787;28;20196;-76
2023/09/29 10:31:50;;;;;;;6.50;4.83;;;19.90;99.90;;;;;;5056903;28;20164;-76
2023/09/29 10:34:24;;;;;;;5.87;4.60;;;20.00;99.90;;;;;;5057080;28;20218;-76
2023/09/29 10:36:54;;;;;;;14.63;4.93;;;20.00;99.90;;;;;;5070593;28;20141;-77
2023/09/29 10:39:26;;;;;;;5.20;4.70;;;20.10;99.90;;;;;;5071475;28;20206;-75
2023/09/29 10:41:58;;;;;;;5.83;5.20;;;20.30;99.90;;;;;;5061348;28;20632;-75
2023/09/29 10:44:28;;;;;;;5.20;4.70;;;20.30;99.90;;;;;;5059277;28;20769;-76
2023/09/29 10:46:54;;;;;;;7.10;4.40;;;20.30;99.90;;;;;;5057374;28;20179;-76
2023/09/29 10:49:20;;;;;;;5.70;4.70;;;20.30;99.90;;;;;;5055676;28;20176;-76
2023/09/29 10:51:46;;;;;;;5.17;4.77;;;20.40;99.90;;;;;;5038933;28;20172;-77
2023/09/29 10:54:12;;;;;;;6.90;5.00;;;20.40;99.90;;;;;;5054993;28;20248;-77
2023/09/29 10:56:39;;;;;;;5.00;4.60;;;20.50;99.90;;;;;;5055448;28;20203;-77
2023/09/29 10:59:07;;;;;;;5.80;4.53;;;20.50;99.90;;;;;;5047674;28;20195;-77
2023/09/29 11:01:36;;;;;;;4.97;4.57;;;20.50;99.90;;;;;;5062472;28;20226;-77
2023/09/29 11:04:05;;;;;;;7.00;4.53;;;20.50;99.90;;;;;;5037412;28;20180;-75
2023/09/29 11:06:39;;;;;;;5.07;4.63;;;20.50;99.90;;;;;;5054504;28;20620;-77
2023/09/29 11:09:07;;;;;;;6.17;4.83;;;20.60;99.90;;;;;;5056337;28;20184;-76
2023/09/29 11:11:35;;;;;;;5.30;4.80;;;20.60;99.90;;;;;;5069062;28;20167;-77
2023/09/29 11:14:04;;;;;;;4.83;4.40;;;20.70;99.90;;;;;;5065837;28;20179;-77
2023/09/29 11:16:31;;;;;;;4.73;4.30;;;20.70;99.90;;;;;;5059443;28;20180;-75
2023/09/29 11:19:11;;;;;;;5.37;4.87;;;20.70;99.90;;;;;;5055328;28;20313;-74
2023/09/29 11:21:38;;;;;;;4.80;4.50;;;20.70;99.90;;;;;;5054717;28;20240;-76
2023/09/29 11:24:09;;;;;;;6.73;4.53;;;20.70;99.90;;;;;;5054666;28;20545;-76
2023/09/29 11:26:39;;;;;;;4.57;4.17;;;20.80;99.90;;;;;;5054359;28;20168;-78
2023/09/29 11:29:05;;;;;;;4.90;4.50;;;20.80;99.90;;;;;;5053805;28;20176;-77
2023/09/29 11:31:31;;;;;;;5.47;4.10;;;20.80;99.90;;;;;;5035890;28;20187;-78
2023/09/29 11:33:57;;;;;;;6.33;4.37;;;20.80;99.90;;;;;;5054359;28;20461;-77
2023/09/29 11:36:27;;;;;;;5.60;4.23;;;20.90;99.90;;;;;;5055318;28;20180;-79
2023/09/29 11:38:53;;;;;;;5.67;4.43;;;21.00;99.90;;;;;;5057072;28;20172;-77
2023/09/29 11:41:21;;;;;;;4.77;4.30;;;21.00;99.90;;;;;;5059024;28;20202;-76
2023/09/29 11:43:47;;;;;;;5.83;4.50;;;21.00;99.90;;;;;;5060553;28;20515;-75
2023/09/29 11:46:15;;;;;;;9.17;4.50;;;21.20;99.90;;;;;;5054499;28;20175;-76
2023/09/29 11:48:42;;;;;;;6.83;4.40;;;21.30;99.90;;;;;;5054087;28;20172;-75
2023/09/29 11:51:08;;;;;;;4.93;4.40;;;21.30;99.90;;;;;;5053945;28;20631;-75
2023/09/29 11:53:35;;;;;;;5.27;4.77;;;21.30;99.90;;;;;;5053948;28;20263;-76
2023/09/29 11:56:01;;;;;;;4.60;4.20;;;21.40;99.90;;;;;;5054253;28;20212;-77
2023/09/29 11:58:29;;;;;;;4.97;4.57;;;21.40;99.90;;;;;;5054384;28;20255;-77
2023/09/29 12:00:55;;;;;;;6.57;4.60;;;21.40;99.90;;;;;;5053755;28;20164;-75
2023/09/29 12:03:23;;;;;;;5.80;4.43;;;21.30;99.90;;;;;;5053992;28;20326;-75
2023/09/29 12:05:50;;;;;;;4.13;3.73;;;21.30;99.90;;;;;;5054677;28;20176;-76
2023/09/29 12:08:16;;;;;;;4.53;4.20;;;21.40;99.90;;;;;;5060817;28;20168;-77
2023/09/29 12:10:43;;;;;;;6.40;4.00;;;21.40;99.90;;;;;;5043636;28;20206;-76
2023/09/29 12:13:15;;;;;;;5.67;5.03;;;21.50;99.90;;;;;;5060576;28;20180;-77
2023/09/29 12:15:44;;;;;;;7.30;5.60;;;21.50;99.90;;;;;;5041977;28;20273;-77
2023/09/29 12:18:11;;;;;;;4.57;4.17;;;21.60;99.90;;;;;;5045737;28;20183;-77
2023/09/29 12:20:41;;;;;;;5.13;4.63;;;21.60;99.90;;;;;;5066430;28;20183;-78
2023/09/29 12:23:08;;;;;;;4.30;3.90;;;21.60;99.90;;;;;;5065336;28;20624;-76
2023/09/29 12:25:35;;;;;;;4.47;4.13;;;21.60;99.90;;;;;;5067592;28;20194;-75
2023/09/29 12:28:08;;;;;;;4.27;3.97;;;21.70;99.90;;;;;;5073013;28;20168;-76
2023/09/29 12:30:34;;;;;;;12.80;5.07;;;21.70;99.90;;;;;;5074398;28;20160;-77
2023/09/29 12:33:00;;;;;;;4.17;3.83;;;21.70;99.90;;;;;;5071824;28;20164;-76
2023/09/29 12:35:26;;;;;;;4.97;4.63;;;21.70;99.90;;;;;;5070744;28;20210;-76
2023/09/29 12:37:52;;;;;;;5.67;4.03;;;21.70;99.90;;;;;;5047183;28;20502;-77
2023/09/29 12:40:19;;;;;;;7.40;4.20;;;21.70;99.90;;;;;;5063572;28;20180;-77
2023/09/29 12:42:49;;;;;;;5.65;4.18;;;21.80;99.90;;;;;;5058867;28;20179;-77